Time;durP1;ratioP1;P1;durP2;ratioP2;P2;SDS_P1;SDS_P2;PMS_P1;PMS_P2;Temp;Humidity;BMP_temperature;BMP_pressure;BME280_temperature;BME280_humidity;BME280_pressure;Samples;Min_cycle;Max_cycle;Signal;HPM_P1;HPM_P2
2023/05/05 00:01:06;;;;;;;7.13;4.75;;;13.70;1.00;;;;;;5088911;28;20048;-65
2023/05/05 00:03:35;;;;;;;9.88;5.22;;;13.40;1.00;;;;;;5087548;28;20075;-65
2023/05/05 00:06:02;;;;;;;12.57;5.75;;;13.30;1.00;;;;;;5089445;28;20048;-64
2023/05/05 00:08:27;;;;;;;10.30;6.03;;;13.40;1.00;;;;;;5088605;28;20036;-64
2023/05/05 00:10:53;;;;;;;9.30;5.60;;;13.40;1.00;;;;;;5089107;28;20105;-64
2023/05/05 00:13:20;;;;;;;6.95;4.38;;;13.30;1.00;;;;;;5089298;28;20106;-65
2023/05/05 00:15:47;;;;;;;13.88;5.30;;;13.30;1.00;;;;;;5088739;28;20047;-65
2023/05/05 00:18:14;;;;;;;9.95;5.00;;;13.30;1.00;;;;;;5088381;28;20097;-65
2023/05/05 00:20:40;;;;;;;10.57;4.95;;;13.30;1.00;;;;;;5087972;28;20078;-65
2023/05/05 00:23:05;;;;;;;12.50;5.72;;;13.20;1.00;;;;;;5087737;28;20059;-65
2023/05/05 00:25:31;;;;;;;11.18;5.40;;;13.20;1.00;;;;;;5087310;28;20138;-64
2023/05/05 00:27:57;;;;;;;8.82;5.05;;;13.20;1.00;;;;;;5088640;28;20453;-64
2023/05/05 00:30:23;;;;;;;15.95;5.15;;;13.20;1.00;;;;;;5088997;28;20048;-64
2023/05/05 00:32:49;;;;;;;11.30;5.22;;;13.20;1.00;;;;;;5085657;28;20491;-64
2023/05/05 00:35:18;;;;;;;8.70;5.70;;;13.20;1.00;;;;;;5088240;28;20036;-64
2023/05/05 00:37:43;;;;;;;11.30;5.97;;;13.10;1.00;;;;;;5086014;28;20090;-64
2023/05/05 00:40:10;;;;;;;10.45;6.38;;;13.10;1.00;;;;;;5086361;28;20051;-64
2023/05/05 00:42:43;;;;;;;14.75;6.55;;;13.10;1.00;;;;;;5086282;28;20151;-64
2023/05/05 00:45:11;;;;;;;12.48;6.22;;;13.10;1.00;;;;;;5085331;28;20028;-64
2023/05/05 00:47:37;;;;;;;11.95;6.13;;;13.00;1.00;;;;;;5087545;28;20426;-64
2023/05/05 00:50:05;;;;;;;8.73;5.53;;;12.90;1.00;;;;;;5086034;28;20105;-64
2023/05/05 00:52:31;;;;;;;9.38;5.53;;;12.90;1.00;;;;;;5087090;28;20040;-65
2023/05/05 00:54:57;;;;;;;9.60;5.38;;;12.90;1.00;;;;;;5087645;28;20036;-64
2023/05/05 00:57:24;;;;;;;12.27;5.90;;;12.90;1.00;;;;;;5085224;28;20453;-64
2023/05/05 00:59:50;;;;;;;7.97;4.82;;;12.80;1.00;;;;;;5074621;28;20482;-64
2023/05/05 01:02:16;;;;;;;8.95;5.38;;;12.80;1.00;;;;;;5087157;28;20042;-64
2023/05/05 01:04:42;;;;;;;9.13;5.60;;;12.70;1.00;;;;;;5080224;28;20486;-64
2023/05/05 01:07:16;;;;;;;9.75;4.93;;;12.70;2.30;;;;;;5088527;28;20032;-64
2023/05/05 01:09:52;;;;;;;9.70;5.45;;;12.70;5.20;;;;;;5091012;28;20574;-64
2023/05/05 01:12:42;;;;;;;11.40;5.70;;;12.70;10.40;;;;;;5093795;28;20052;-64
2023/05/05 01:15:34;;;;;;;8.32;5.32;;;12.70;12.20;;;;;;5091470;28;20465;-64
2023/05/05 01:18:18;;;;;;;10.38;5.93;;;12.70;15.50;;;;;;5087686;28;20071;-64
2023/05/05 01:21:02;;;;;;;10.80;5.70;;;12.70;20.90;;;;;;5089662;28;20052;-64
2023/05/05 01:24:13;;;;;;;9.02;5.32;;;12.60;26.30;;;;;;5087834;28;20505;-64
2023/05/05 01:27:03;;;;;;;8.32;5.25;;;12.60;37.90;;;;;;5091133;28;20047;-64
2023/05/05 01:29:59;;;;;;;10.65;6.25;;;12.60;44.90;;;;;;5090566;28;20461;-64
2023/05/05 01:32:28;;;;;;;13.88;8.07;;;12.50;59.80;;;;;;5089150;28;20055;-64
2023/05/05 01:35:17;;;;;;;9.52;6.80;;;12.50;71.50;;;;;;5090352;28;20085;-64
2023/05/05 01:37:51;;;;;;;9.13;5.60;;;12.50;91.60;;;;;;5074581;28;20097;-64
2023/05/05 01:40:21;;;;;;;9.65;6.13;;;12.50;87.10;;;;;;5086956;28;20040;-64
2023/05/05 01:42:49;;;;;;;8.35;5.97;;;12.40;95.20;;;;;;5089552;28;20085;-64
2023/05/05 01:45:19;;;;;;;11.25;7.28;;;12.30;99.90;;;;;;5088113;28;20044;-64
2023/05/05 01:47:46;;;;;;;10.70;7.68;;;12.30;99.90;;;;;;5090385;28;20486;-64
2023/05/05 01:50:13;;;;;;;14.18;11.75;;;12.20;99.90;;;;;;5088526;28;20066;-64
2023/05/05 01:52:41;;;;;;;10.07;7.18;;;12.10;99.90;;;;;;5088844;28;20070;-64
2023/05/05 01:55:08;;;;;;;20.48;18.13;;;12.10;99.90;;;;;;5089943;28;20166;-64
2023/05/05 01:57:35;;;;;;;11.77;6.90;;;12.00;99.90;;;;;;5082861;28;20536;-64
2023/05/05 02:00:02;;;;;;;13.35;9.43;;;11.90;99.90;;;;;;5088555;28;20040;-64
2023/05/05 02:02:29;;;;;;;17.60;15.68;;;11.80;99.90;;;;;;5089368;28;20481;-64
2023/05/05 02:04:57;;;;;;;16.65;14.32;;;12.00;99.90;;;;;;5068983;28;20636;-64
2023/05/05 02:07:23;;;;;;;11.77;10.45;;;11.70;99.90;;;;;;5090140;28;20115;-64
2023/05/05 02:09:50;;;;;;;22.02;19.17;;;11.70;99.90;;;;;;5089756;28;20047;-64
2023/05/05 02:12:18;;;;;;;16.60;14.77;;;11.60;99.90;;;;;;5090234;28;20040;-64
2023/05/05 02:14:45;;;;;;;19.08;17.38;;;11.60;99.90;;;;;;5089827;28;20055;-64
2023/05/05 02:17:12;;;;;;;18.63;17.05;;;11.60;99.90;;;;;;5087803;28;20106;-64
2023/05/05 02:19:40;;;;;;;11.25;8.05;;;11.60;99.90;;;;;;5088485;28;20040;-64
2023/05/05 02:22:06;;;;;;;12.63;11.40;;;11.60;1.00;;;;;;5087730;28;20072;-64
2023/05/05 02:24:32;;;;;;;24.15;22.15;;;11.60;1.00;;;;;;5090623;28;20430;-64
2023/05/05 02:27:01;;;;;;;14.75;10.75;;;11.60;1.00;;;;;;5089550;28;20128;-64
2023/05/05 02:29:35;;;;;;;14.60;13.02;;;11.60;1.00;;;;;;5088153;28;20044;-64
2023/05/05 02:32:23;;;;;;;18.40;16.60;;;11.50;1.00;;;;;;5089414;28;20111;-64
2023/05/05 02:34:50;;;;;;;28.10;25.70;;;11.50;1.00;;;;;;5086596;28;20159;-64
2023/05/05 02:37:20;;;;;;;15.82;13.98;;;11.60;19.70;;;;;;5089369;28;20052;-64
2023/05/05 02:39:59;;;;;;;19.27;17.40;;;11.60;46.70;;;;;;5081485;28;20461;-64
2023/05/05 02:42:30;;;;;;;15.75;14.18;;;11.60;93.50;;;;;;5090949;28;20047;-64
2023/05/05 02:44:58;;;;;;;18.98;12.52;;;11.60;99.90;;;;;;5090372;28;20046;-64
2023/05/05 02:47:36;;;;;;;17.30;15.63;;;11.60;99.90;;;;;;5089950;28;20087;-64
2023/05/05 02:50:04;;;;;;;26.73;24.25;;;11.60;99.90;;;;;;5086551;28;20044;-64
2023/05/05 02:52:30;;;;;;;30.45;27.80;;;11.70;99.90;;;;;;5087690;28;20036;-64
2023/05/05 02:54:56;;;;;;;13.38;12.05;;;12.30;99.90;;;;;;5089148;28;20119;-65
2023/05/05 02:57:28;;;;;;;205.95;143.98;;;11.70;99.90;;;;;;5077292;28;20134;-65
2023/05/05 03:00:14;;;;;;;18.05;16.27;;;11.60;99.90;;;;;;5089335;28;20109;-65
2023/05/05 03:02:53;;;;;;;1999.90;999.90;;;11.50;99.90;;;;;;5090127;28;20044;-65
2023/05/05 03:05:22;;;;;;;721.15;75.60;;;11.50;1.00;;;;;;5087036;28;20047;-65
2023/05/05 03:07:58;;;;;;;19.42;17.63;;;11.50;1.00;;;;;;5088734;28;20036;-65
2023/05/05 03:10:28;;;;;;;19.70;15.40;;;11.50;1.00;;;;;;5090330;28;20032;-65
2023/05/05 03:12:58;;;;;;;13.85;10.20;;;11.60;1.00;;;;;;5087945;28;20088;-66
2023/05/05 03:15:44;;;;;;;15.45;10.88;;;11.50;1.00;;;;;;5071265;28;20040;-66
2023/05/05 03:18:14;;;;;;;21.52;19.27;;;11.50;24.40;;;;;;5087159;28;20089;-65
2023/05/05 03:20:39;;;;;;;16.35;14.32;;;11.50;95.00;;;;;;5089243;28;20122;-65
2023/05/05 03:23:06;;;;;;;15.55;13.95;;;11.40;99.90;;;;;;5085996;28;20056;-65
2023/05/05 03:25:45;;;;;;;1579.60;760.58;;;11.40;99.90;;;;;;5087673;28;20135;-65
2023/05/05 03:28:12;;;;;;;19.08;11.27;;;11.40;99.90;;;;;;5087665;28;20498;-65
2023/05/05 03:30:38;;;;;;;16.73;11.63;;;11.40;1.00;;;;;;5088874;28;20059;-65
2023/05/05 03:33:03;;;;;;;13.18;11.30;;;11.50;1.00;;;;;;5088585;28;20070;-65
2023/05/05 03:35:29;;;;;;;14.65;12.13;;;11.40;1.00;;;;;;5089306;28;20051;-66
2023/05/05 03:37:54;;;;;;;14.18;11.13;;;11.40;99.90;;;;;;5086955;28;20126;-66
2023/05/05 03:40:21;;;;;;;16.52;10.40;;;11.50;99.90;;;;;;5088235;28;20035;-66
2023/05/05 03:42:47;;;;;;;15.95;11.00;;;11.50;99.90;;;;;;5089852;28;20044;-66
2023/05/05 03:45:12;;;;;;;422.95;75.38;;;11.40;1.00;;;;;;5088411;28;20070;-66
2023/05/05 03:47:38;;;;;;;14.38;11.07;;;11.40;1.00;;;;;;5089778;28;20036;-65
2023/05/05 03:50:04;;;;;;;17.33;11.77;;;11.40;67.50;;;;;;5087201;28;20043;-65
2023/05/05 03:52:30;;;;;;;16.58;12.52;;;11.40;99.90;;;;;;5088200;28;20044;-65
2023/05/05 03:54:56;;;;;;;20.13;12.32;;;11.40;99.90;;;;;;5089195;28;20044;-65
2023/05/05 03:57:22;;;;;;;17.60;12.48;;;11.50;99.90;;;;;;5089454;28;20402;-65
2023/05/05 03:59:47;;;;;;;15.20;12.38;;;11.50;99.90;;;;;;5089598;28;20040;-65
2023/05/05 04:02:13;;;;;;;15.60;13.95;;;11.50;1.00;;;;;;5089752;28;20096;-65
2023/05/05 04:04:38;;;;;;;18.98;16.90;;;11.50;1.00;;;;;;5089518;28;20044;-65
2023/05/05 04:07:04;;;;;;;16.35;13.48;;;11.50;1.00;;;;;;5088569;28;20036;-65
2023/05/05 04:09:30;;;;;;;19.00;16.55;;;11.50;62.40;;;;;;5070900;28;20557;-65
2023/05/05 04:11:56;;;;;;;17.70;12.10;;;11.40;99.90;;;;;;5087752;28;20132;-65
2023/05/05 04:14:21;;;;;;;15.80;12.48;;;11.40;99.90;;;;;;5089417;28;20506;-65
2023/05/05 04:16:47;;;;;;;14.98;12.68;;;11.40;99.90;;;;;;5089948;28;20399;-66
2023/05/05 04:19:12;;;;;;;17.63;14.50;;;11.50;1.00;;;;;;5089150;28;20054;-66
2023/05/05 04:21:38;;;;;;;17.20;14.82;;;11.40;13.00;;;;;;5087576;28;20040;-65
2023/05/05 04:24:04;;;;;;;15.88;13.10;;;11.40;90.50;;;;;;5088206;28;20119;-65
2023/05/05 04:26:29;;;;;;;23.08;15.05;;;11.40;99.90;;;;;;5087175;28;20046;-65
2023/05/05 04:28:55;;;;;;;19.17;16.05;;;11.40;99.90;;;;;;5087848;28;20081;-65
2023/05/05 04:31:20;;;;;;;18.02;14.73;;;11.40;99.90;;;;;;5086903;28;20085;-65
2023/05/05 04:33:46;;;;;;;17.65;15.68;;;11.30;99.90;;;;;;5089322;28;20462;-65
2023/05/05 04:36:11;;;;;;;17.08;15.10;;;11.20;99.90;;;;;;5087252;28;20103;-65
2023/05/05 04:38:37;;;;;;;18.77;15.85;;;11.20;99.90;;;;;;5084243;28;20055;-65
2023/05/05 04:41:06;;;;;;;16.55;14.50;;;11.10;99.90;;;;;;5089406;28;20087;-65
2023/05/05 04:43:31;;;;;;;17.88;13.95;;;11.00;1.00;;;;;;5093233;28;20452;-65
2023/05/05 04:45:57;;;;;;;17.15;15.35;;;11.00;1.00;;;;;;5093410;28;20032;-65
2023/05/05 04:48:23;;;;;;;15.25;13.70;;;10.90;1.00;;;;;;5092225;28;20416;-65
2023/05/05 04:50:48;;;;;;;17.25;15.55;;;10.90;48.00;;;;;;5093113;28;20051;-65
2023/05/05 04:53:14;;;;;;;14.18;12.70;;;11.40;99.90;;;;;;5086589;28;20094;-65
2023/05/05 04:55:39;;;;;;;15.73;14.18;;;10.70;99.90;;;;;;5086478;28;20053;-65
2023/05/05 04:58:05;;;;;;;18.77;15.70;;;10.70;99.90;;;;;;5091265;28;20090;-65
2023/05/05 05:00:30;;;;;;;17.65;15.95;;;10.60;1.00;;;;;;5090379;28;20054;-66
2023/05/05 05:02:56;;;;;;;15.32;13.77;;;10.60;1.00;;;;;;5090431;28;20036;-65
2023/05/05 05:05:22;;;;;;;19.92;15.02;;;10.70;99.90;;;;;;5091964;28;20380;-65
2023/05/05 05:07:48;;;;;;;17.40;15.25;;;10.70;99.90;;;;;;5089524;28;20044;-65
2023/05/05 05:10:13;;;;;;;20.38;17.23;;;10.60;1.00;;;;;;5089726;28;20035;-65
2023/05/05 05:12:39;;;;;;;22.50;20.15;;;10.70;18.70;;;;;;5090452;28;20093;-65
2023/05/05 05:15:05;;;;;;;17.15;14.23;;;10.60;99.90;;;;;;5092587;28;20501;-65
2023/05/05 05:17:31;;;;;;;18.70;16.80;;;10.70;99.90;;;;;;5085344;28;20456;-65
2023/05/05 05:20:00;;;;;;;17.98;16.40;;;10.80;1.00;;;;;;5091133;28;20066;-65
2023/05/05 05:22:25;;;;;;;20.02;18.02;;;10.70;45.60;;;;;;5090155;28;20039;-65
2023/05/05 05:24:51;;;;;;;20.35;18.17;;;10.80;99.90;;;;;;5090249;28;20466;-65
2023/05/05 05:27:17;;;;;;;20.77;18.75;;;11.00;99.90;;;;;;5088911;28;20036;-66
2023/05/05 05:29:42;;;;;;;19.70;17.73;;;11.10;1.00;;;;;;5091442;28;20548;-65
2023/05/05 05:32:08;;;;;;;19.10;17.08;;;11.20;98.90;;;;;;5072381;28;20101;-65
2023/05/05 05:34:33;;;;;;;20.42;17.70;;;11.20;99.90;;;;;;5083048;28;20043;-66
2023/05/05 05:37:00;;;;;;;21.48;19.30;;;11.30;99.90;;;;;;5090246;28;20043;-65
2023/05/05 05:39:25;;;;;;;17.45;14.02;;;11.50;1.00;;;;;;5090569;28;20044;-65
2023/05/05 05:41:51;;;;;;;16.98;15.20;;;11.50;1.00;;;;;;5091030;28;20150;-65
2023/05/05 05:44:17;;;;;;;19.90;17.95;;;11.70;59.10;;;;;;5090221;28;20043;-66
2023/05/05 05:46:42;;;;;;;17.75;14.80;;;11.70;99.90;;;;;;5089745;28;20256;-65
2023/05/05 05:49:08;;;;;;;19.08;13.35;;;11.80;99.90;;;;;;5090602;28;20478;-65
2023/05/05 05:51:33;;;;;;;19.88;16.85;;;11.80;99.90;;;;;;5090618;28;20036;-65
2023/05/05 05:53:59;;;;;;;19.17;16.75;;;11.90;99.90;;;;;;5084989;28;20044;-66
2023/05/05 05:56:24;;;;;;;16.52;14.80;;;12.00;99.90;;;;;;5088618;28;20036;-65
2023/05/05 05:58:50;;;;;;;17.80;14.55;;;12.30;99.90;;;;;;5090249;28;20047;-65
2023/05/05 06:01:16;;;;;;;19.60;16.33;;;12.40;99.90;;;;;;5089986;28;20097;-65
2023/05/05 06:03:41;;;;;;;26.52;15.93;;;12.40;99.90;;;;;;5088706;28;20449;-65
2023/05/05 06:06:07;;;;;;;19.00;14.82;;;12.50;99.90;;;;;;5089427;28;20044;-65
2023/05/05 06:08:33;;;;;;;18.65;16.40;;;12.50;99.90;;;;;;5089531;28;20036;-66
2023/05/05 06:10:59;;;;;;;18.17;13.88;;;12.50;99.90;;;;;;5084390;28;20123;-66
2023/05/05 06:13:25;;;;;;;20.15;14.75;;;12.60;99.90;;;;;;5087725;28;20044;-66
2023/05/05 06:15:51;;;;;;;17.85;15.18;;;12.70;99.90;;;;;;5089315;28;20044;-65
2023/05/05 06:18:16;;;;;;;20.15;15.43;;;12.80;99.90;;;;;;5089771;28;20044;-65
2023/05/05 06:20:45;;;;;;;18.15;15.70;;;12.80;99.90;;;;;;5089123;28;20159;-65
2023/05/05 06:23:10;;;;;;;18.23;14.55;;;12.90;99.90;;;;;;5088927;28;20501;-65
2023/05/05 06:25:36;;;;;;;18.25;15.82;;;13.00;99.90;;;;;;5087633;28;20036;-66
2023/05/05 06:28:04;;;;;;;20.48;15.00;;;13.00;99.90;;;;;;5087486;28;20066;-65
2023/05/05 06:30:30;;;;;;;16.95;13.95;;;13.10;99.90;;;;;;5084647;28;20047;-65
2023/05/05 06:32:55;;;;;;;18.15;15.60;;;13.30;99.90;;;;;;5084587;28;20041;-66
2023/05/05 06:35:21;;;;;;;19.77;14.95;;;13.30;99.90;;;;;;5085014;28;20040;-66
2023/05/05 06:37:46;;;;;;;20.08;15.63;;;13.50;99.90;;;;;;5088328;28;20060;-65
2023/05/05 06:40:12;;;;;;;21.38;15.52;;;13.70;99.90;;;;;;5082054;28;20513;-66
2023/05/05 06:42:37;;;;;;;19.15;15.45;;;13.90;99.90;;;;;;5086461;28;20490;-66
2023/05/05 06:45:03;;;;;;;20.40;15.25;;;14.00;99.90;;;;;;5088076;28;20047;-66
2023/05/05 06:47:29;;;;;;;20.27;16.10;;;14.20;99.90;;;;;;5081436;28;20119;-66
2023/05/05 06:49:54;;;;;;;21.20;14.85;;;14.30;99.90;;;;;;5080316;28;20044;-66
2023/05/05 06:52:21;;;;;;;21.77;16.80;;;14.50;99.90;;;;;;5084327;28;20593;-66
2023/05/05 06:54:47;;;;;;;20.48;15.25;;;14.60;99.90;;;;;;5085949;28;20040;-66
2023/05/05 06:57:12;;;;;;;23.90;18.92;;;14.80;99.90;;;;;;5088938;28;20044;-66
2023/05/05 06:59:38;;;;;;;27.98;24.75;;;15.10;99.90;;;;;;5089058;28;20494;-66
2023/05/05 07:02:04;;;;;;;30.13;22.90;;;15.30;99.90;;;;;;5086721;28;20075;-65
2023/05/05 07:04:30;;;;;;;30.15;22.63;;;15.40;99.90;;;;;;5089970;28;20036;-66
2023/05/05 07:06:57;;;;;;;28.77;22.65;;;15.70;99.90;;;;;;5079033;28;20044;-66
2023/05/05 07:09:23;;;;;;;35.33;23.15;;;15.70;99.90;;;;;;5089454;28;20478;-66
2023/05/05 07:11:48;;;;;;;31.50;23.48;;;15.70;99.90;;;;;;5089323;28;20050;-66
2023/05/05 07:14:14;;;;;;;30.27;22.83;;;15.60;99.90;;;;;;5089808;28;20040;-66
2023/05/05 07:16:39;;;;;;;27.00;21.95;;;15.70;99.90;;;;;;5089056;28;20036;-66
2023/05/05 07:19:05;;;;;;;32.40;22.98;;;15.80;99.90;;;;;;5089562;28;20048;-66
2023/05/05 07:21:34;;;;;;;29.23;23.88;;;15.80;84.80;;;;;;5089535;28;20096;-66
2023/05/05 07:24:00;;;;;;;31.25;23.48;;;15.90;28.50;;;;;;5088534;28;20094;-66
2023/05/05 07:26:26;;;;;;;30.17;25.63;;;15.90;1.00;;;;;;5085047;28;20485;-66
2023/05/05 07:28:51;;;;;;;40.78;31.38;;;15.80;1.00;;;;;;5089866;28;20036;-66
2023/05/05 07:31:20;;;;;;;39.88;29.63;;;15.80;1.00;;;;;;5090199;28;20239;-63
2023/05/05 07:33:46;;;;;;;39.15;32.75;;;15.90;1.00;;;;;;5089178;28;20067;-62
2023/05/05 07:36:12;;;;;;;42.22;35.53;;;16.50;1.00;;;;;;5087823;28;20055;-63
2023/05/05 07:38:37;;;;;;;42.70;35.58;;;16.00;1.00;;;;;;5088909;28;20059;-63
2023/05/05 07:41:03;;;;;;;42.55;35.25;;;15.90;1.00;;;;;;5088760;28;20048;-63
2023/05/05 07:43:30;;;;;;;45.53;36.45;;;15.80;99.90;;;;;;5088265;28;20511;-63
2023/05/05 07:45:55;;;;;;;42.13;35.55;;;15.90;99.90;;;;;;5088109;28;20111;-66
2023/05/05 07:48:21;;;;;;;48.92;35.30;;;16.00;99.90;;;;;;5085382;28;20039;-66
2023/05/05 07:50:47;;;;;;;47.65;35.10;;;16.10;99.90;;;;;;5085665;28;20097;-66
2023/05/05 07:53:12;;;;;;;44.30;34.25;;;16.30;99.90;;;;;;5089315;28;20087;-66
2023/05/05 07:55:38;;;;;;;43.45;35.72;;;16.40;99.90;;;;;;5077096;28;20298;-66
2023/05/05 07:58:04;;;;;;;45.45;35.83;;;16.60;99.90;;;;;;5087761;28;20028;-66
2023/05/05 08:00:29;;;;;;;44.40;35.28;;;17.10;99.90;;;;;;5087778;28;20044;-66
2023/05/05 08:02:55;;;;;;;46.97;36.35;;;17.50;99.90;;;;;;5088644;28;20050;-66
2023/05/05 08:05:20;;;;;;;44.95;34.88;;;17.80;99.90;;;;;;5074024;28;20068;-67
2023/05/05 08:07:46;;;;;;;43.30;33.30;;;18.30;99.90;;;;;;5085991;28;20040;-67
2023/05/05 08:10:12;;;;;;;44.78;34.20;;;18.40;99.90;;;;;;5087906;28;20039;-67
2023/05/05 08:12:38;;;;;;;40.42;32.13;;;18.30;99.90;;;;;;5088864;28;20501;-66
2023/05/05 08:15:05;;;;;;;38.60;32.50;;;18.40;99.90;;;;;;5084606;28;20055;-67
2023/05/05 08:17:49;;;;;;;39.92;32.75;;;18.40;99.90;;;;;;5085466;28;20075;-66
2023/05/05 08:20:18;;;;;;;38.53;28.90;;;18.40;99.90;;;;;;5087672;28;20048;-66
2023/05/05 08:22:45;;;;;;;30.63;21.80;;;18.50;1.00;;;;;;5089014;28;20055;-67
2023/05/05 08:25:11;;;;;;;28.58;21.63;;;18.60;99.90;;;;;;5088439;28;20153;-67
2023/05/05 08:27:41;;;;;;;27.23;21.25;;;19.00;99.90;;;;;;5087976;28;20050;-67
2023/05/05 08:30:08;;;;;;;27.98;18.50;;;19.40;1.00;;;;;;5089381;28;20051;-67
2023/05/05 08:32:33;;;;;;;22.40;17.75;;;19.20;1.00;;;;;;5086765;28;20124;-67
2023/05/05 08:35:03;;;;;;;20.88;14.98;;;19.30;99.90;;;;;;5088458;28;20039;-67
2023/05/05 08:37:29;;;;;;;22.02;13.65;;;19.30;76.50;;;;;;5087933;28;20060;-66
2023/05/05 08:39:58;;;;;;;21.08;15.60;;;19.50;1.00;;;;;;5088650;28;20077;-68
2023/05/05 08:42:24;;;;;;;20.73;15.27;;;19.90;1.00;;;;;;5080870;28;20501;-66
2023/05/05 08:44:50;;;;;;;23.25;16.27;;;19.90;99.90;;;;;;5088762;28;20036;-66
2023/05/05 08:47:16;;;;;;;21.35;14.48;;;19.60;99.90;;;;;;5088733;28;20169;-65
2023/05/05 08:49:46;;;;;;;21.95;15.63;;;19.50;76.00;;;;;;5086776;28;20044;-67
2023/05/05 08:52:22;;;;;;;22.70;14.88;;;19.40;79.90;;;;;;5088137;28;20043;-66
2023/05/05 08:54:59;;;;;;;17.50;12.93;;;19.30;1.00;;;;;;5086774;28;20032;-75
2023/05/05 08:57:50;;;;;;;19.02;13.07;;;19.30;1.00;;;;;;5078258;28;20032;-68
2023/05/05 09:00:20;;;;;;;21.98;14.45;;;19.30;1.00;;;;;;5084069;28;20070;-68
2023/05/05 09:02:47;;;;;;;16.77;11.45;;;19.10;1.00;;;;;;5085486;28;20158;-69
2023/05/05 09:05:12;;;;;;;18.02;11.95;;;19.30;1.00;;;;;;5085753;28;20119;-69
2023/05/05 09:07:42;;;;;;;18.52;13.25;;;19.30;1.00;;;;;;5085688;28;20048;-69
2023/05/05 09:10:10;;;;;;;18.98;13.30;;;19.50;1.00;;;;;;5076960;28;20537;-69
2023/05/05 09:12:39;;;;;;;19.45;14.00;;;19.40;1.00;;;;;;5079781;28;20041;-68
2023/05/05 09:15:09;;;;;;;20.15;13.63;;;19.40;1.00;;;;;;5082614;28;20044;-68
2023/05/05 09:17:35;;;;;;;19.67;11.98;;;19.30;1.00;;;;;;5085407;28;20044;-68
2023/05/05 09:20:03;;;;;;;18.75;12.30;;;19.50;1.00;;;;;;5083202;28;20048;-68
2023/05/05 09:22:37;;;;;;;22.25;13.57;;;19.60;1.00;;;;;;5086706;28;20143;-69
2023/05/05 09:25:11;;;;;;;19.63;12.05;;;20.10;1.00;;;;;;5084774;28;20079;-68
2023/05/05 09:27:42;;;;;;;17.23;10.93;;;19.80;1.00;;;;;;5085852;28;20040;-69
2023/05/05 09:30:09;;;;;;;17.42;12.18;;;19.80;1.00;;;;;;5085864;28;20028;-71
2023/05/05 09:32:49;;;;;;;16.85;11.27;;;19.90;1.00;;;;;;5084986;28;20059;-70
2023/05/05 09:35:16;;;;;;;17.63;10.95;;;19.90;1.00;;;;;;5080976;28;20119;-71
2023/05/05 09:37:42;;;;;;;18.90;12.65;;;20.20;1.00;;;;;;5070440;28;20375;-67
2023/05/05 09:40:08;;;;;;;21.63;13.10;;;19.80;1.00;;;;;;5087276;28;20097;-67
2023/05/05 09:42:35;;;;;;;17.20;12.18;;;19.90;1.00;;;;;;5088881;28;20392;-67
2023/05/05 09:45:01;;;;;;;19.45;12.20;;;20.00;1.00;;;;;;5089939;28;20042;-62
2023/05/05 09:47:34;;;;;;;17.50;11.52;;;19.80;99.90;;;;;;5089138;28;20036;-61
2023/05/05 09:50:00;;;;;;;17.60;10.55;;;19.60;99.90;;;;;;5088150;28;20032;-64
2023/05/05 09:52:26;;;;;;;15.32;9.93;;;19.40;99.90;;;;;;5087714;28;20040;-65
2023/05/05 09:54:56;;;;;;;16.05;10.68;;;19.40;99.90;;;;;;5087248;28;20458;-64
2023/05/05 09:57:33;;;;;;;14.35;10.50;;;19.40;1.00;;;;;;5086905;28;20035;-64
2023/05/05 10:00:01;;;;;;;15.82;10.38;;;19.40;1.00;;;;;;5089567;28;20114;-64
2023/05/05 10:02:34;;;;;;;12.90;10.15;;;19.30;1.00;;;;;;5086188;28;20470;-64
2023/05/05 10:05:11;;;;;;;17.33;11.07;;;19.20;1.00;;;;;;5085480;28;20032;-65
2023/05/05 10:07:40;;;;;;;15.15;10.68;;;19.30;1.00;;;;;;5085614;28;20066;-66
2023/05/05 10:10:08;;;;;;;14.95;10.77;;;19.30;1.00;;;;;;5086148;28;20035;-65
2023/05/05 10:12:37;;;;;;;18.10;9.98;;;19.50;1.00;;;;;;5089333;28;20469;-65
2023/05/05 10:15:05;;;;;;;15.35;9.63;;;19.60;1.00;;;;;;5081643;28;20063;-65
2023/05/05 10:17:36;;;;;;;13.48;10.07;;;19.60;1.00;;;;;;5086338;28;20057;-65
2023/05/05 10:20:03;;;;;;;15.18;9.75;;;19.50;99.90;;;;;;5086143;28;20032;-65
2023/05/05 10:22:32;;;;;;;15.85;10.70;;;19.40;99.90;;;;;;5087722;28;20668;-65
2023/05/05 10:25:14;;;;;;;15.77;9.27;;;19.50;1.00;;;;;;5088133;28;20100;-65
2023/05/05 10:27:45;;;;;;;12.07;7.68;;;19.50;99.90;;;;;;5082290;28;20063;-64
2023/05/05 10:30:28;;;;;;;12.45;8.93;;;19.50;99.90;;;;;;5089534;28;20063;-65
2023/05/05 10:32:57;;;;;;;14.93;8.73;;;19.50;99.90;;;;;;5088014;28;20534;-65
2023/05/05 10:35:26;;;;;;;12.40;8.57;;;19.30;99.90;;;;;;5087119;28;20082;-65
2023/05/05 10:37:53;;;;;;;13.93;9.52;;;19.20;99.90;;;;;;5084885;28;20116;-65
2023/05/05 10:40:20;;;;;;;16.50;10.48;;;19.20;99.90;;;;;;5088887;28;20036;-65
2023/05/05 10:42:48;;;;;;;14.38;9.18;;;19.10;99.90;;;;;;5088542;28;20079;-64
2023/05/05 10:45:14;;;;;;;11.57;8.13;;;19.00;99.90;;;;;;5088777;28;20073;-65
2023/05/05 10:47:40;;;;;;;13.07;8.02;;;19.00;99.90;;;;;;5088075;28;20056;-65
2023/05/05 10:50:25;;;;;;;10.05;6.78;;;19.00;99.90;;;;;;5085378;28;20451;-64
2023/05/05 10:53:24;;;;;;;11.15;6.07;;;18.90;99.90;;;;;;5087680;28;20137;-64
2023/05/05 10:56:10;;;;;;;12.13;5.25;;;18.70;99.90;;;;;;5087651;28;20036;-65
2023/05/05 10:58:37;;;;;;;8.32;3.90;;;18.50;99.90;;;;;;5088398;28;20509;-64
2023/05/05 11:01:04;;;;;;;6.75;3.75;;;18.30;99.90;;;;;;5087044;28;20055;-64
2023/05/05 11:03:30;;;;;;;6.13;4.43;;;18.30;99.90;;;;;;5088983;28;20116;-64
2023/05/05 11:06:06;;;;;;;8.20;4.40;;;18.30;1.00;;;;;;5089553;28;20111;-64
2023/05/05 11:08:36;;;;;;;10.73;5.63;;;18.30;1.00;;;;;;5087618;28;20093;-64
2023/05/05 11:11:03;;;;;;;12.32;7.50;;;18.40;1.00;;;;;;5086874;28;20125;-64
2023/05/05 11:13:29;;;;;;;15.32;9.95;;;18.50;1.00;;;;;;5089318;28;20076;-65
2023/05/05 11:15:59;;;;;;;18.63;10.50;;;18.50;1.00;;;;;;5084510;28;20036;-64
2023/05/05 11:18:30;;;;;;;10.60;8.13;;;18.50;1.00;;;;;;5085606;28;20044;-64
2023/05/05 11:20:58;;;;;;;13.90;8.25;;;18.60;1.00;;;;;;5086422;28;20093;-65
2023/05/05 11:23:25;;;;;;;15.73;7.88;;;18.50;1.00;;;;;;5087080;28;20089;-65
2023/05/05 11:25:51;;;;;;;14.63;7.40;;;18.60;1.00;;;;;;5085602;28;20048;-65
2023/05/05 11:28:20;;;;;;;10.43;6.47;;;18.80;1.00;;;;;;5087830;28;20645;-64
2023/05/05 11:30:57;;;;;;;12.80;6.50;;;18.70;1.00;;;;;;5087640;28;20105;-65
2023/05/05 11:33:29;;;;;;;11.48;5.35;;;18.70;1.00;;;;;;5075832;28;20044;-64
2023/05/05 11:35:58;;;;;;;9.93;5.60;;;18.70;1.00;;;;;;5082054;28;20033;-64
2023/05/05 11:38:59;;;;;;;12.27;5.95;;;18.70;1.00;;;;;;5087214;28;20044;-64
2023/05/05 11:41:43;;;;;;;12.02;6.40;;;18.80;1.00;;;;;;5082869;28;20047;-64
2023/05/05 11:44:17;;;;;;;12.70;6.45;;;18.60;1.00;;;;;;5079523;28;20112;-65
2023/05/05 11:46:51;;;;;;;10.75;5.97;;;18.60;1.00;;;;;;5087375;28;20071;-64
2023/05/05 11:49:27;;;;;;;11.10;4.85;;;18.60;1.00;;;;;;5082357;28;20075;-64
2023/05/05 11:51:58;;;;;;;6.95;3.50;;;18.60;1.00;;;;;;5089526;28;20093;-64
2023/05/05 11:54:25;;;;;;;6.78;3.08;;;18.50;1.00;;;;;;5087866;28;20115;-65
2023/05/05 11:56:58;;;;;;;6.25;2.80;;;18.40;1.00;;;;;;5085072;28;20066;-64
2023/05/05 11:59:24;;;;;;;6.65;2.60;;;18.30;1.00;;;;;;5084391;28;20624;-64
2023/05/05 12:01:50;;;;;;;6.20;2.60;;;18.20;1.00;;;;;;5084925;28;20036;-64
2023/05/05 12:04:16;;;;;;;7.75;2.83;;;18.20;1.00;;;;;;5087564;28;20032;-65
2023/05/05 12:06:43;;;;;;;9.88;3.00;;;18.00;1.00;;;;;;5087597;28;20409;-64
2023/05/05 12:09:20;;;;;;;5.47;2.90;;;17.90;1.00;;;;;;5087264;28;20040;-64
2023/05/05 12:11:54;;;;;;;5.88;3.22;;;17.90;1.00;;;;;;5086772;28;20063;-64
2023/05/05 12:14:20;;;;;;;7.65;3.53;;;17.80;1.00;;;;;;5084771;28;20054;-64
2023/05/05 12:17:03;;;;;;;7.00;3.85;;;17.80;1.00;;;;;;5084334;28;20048;-64
2023/05/05 12:19:29;;;;;;;5.93;3.95;;;17.80;1.00;;;;;;5088929;28;20131;-64
2023/05/05 12:21:55;;;;;;;8.55;4.05;;;18.30;1.00;;;;;;5089417;28;20414;-64
2023/05/05 12:24:21;;;;;;;7.63;3.97;;;17.80;1.00;;;;;;5086864;28;20497;-64
2023/05/05 12:26:47;;;;;;;9.70;4.47;;;17.80;1.00;;;;;;5086083;28;20073;-64
2023/05/05 12:29:22;;;;;;;7.53;4.40;;;17.70;1.00;;;;;;5053638;28;20141;-65
2023/05/05 12:31:47;;;;;;;8.13;4.83;;;17.70;1.00;;;;;;5067681;28;20585;-65
2023/05/05 12:34:13;;;;;;;8.07;5.70;;;17.60;1.00;;;;;;5067872;28;20378;-65
2023/05/05 12:36:38;;;;;;;9.32;5.07;;;17.60;1.00;;;;;;5066417;28;20043;-65
2023/05/05 12:39:04;;;;;;;8.40;5.25;;;17.50;1.00;;;;;;5063997;28;20052;-65
2023/05/05 12:41:30;;;;;;;8.75;5.22;;;17.40;1.00;;;;;;5060980;28;20052;-65
2023/05/05 12:43:58;;;;;;;10.32;5.75;;;17.40;1.00;;;;;;5063838;28;20032;-65